createdAt,value
2016-12-25T00:00:38.661Z,0
2016-12-25T00:01:49.643Z,0
2016-12-25T00:03:00.880Z,0
2016-12-25T00:04:11.864Z,0
2016-12-25T00:05:22.850Z,0
2016-12-25T00:06:33.842Z,0
2016-12-25T00:07:45.228Z,0
2016-12-25T00:08:56.669Z,0
2016-12-25T00:10:07.652Z,0
2016-12-25T00:11:18.637Z,0
2016-12-25T00:12:29.823Z,0
2016-12-25T00:13:40.807Z,0
2016-12-25T00:14:51.843Z,0
2016-12-25T00:16:02.829Z,0
2016-12-25T00:17:13.813Z,0
2016-12-25T00:18:25.007Z,0
2016-12-25T00:19:35.995Z,0
2016-12-25T00:20:47.036Z,0
2016-12-25T00:21:58.040Z,0
2016-12-25T00:23:09.225Z,0
2016-12-25T00:24:20.211Z,0
2016-12-25T00:25:31.185Z,0
2016-12-25T00:26:42.243Z,0
2016-12-25T00:27:53.232Z,0
2016-12-25T00:29:04.211Z,0
2016-12-25T00:30:15.196Z,0
2016-12-25T00:31:26.179Z,0
2016-12-25T00:32:37.221Z,0
2016-12-25T00:33:48.207Z,0
2016-12-25T00:34:59.186Z,0
2016-12-25T00:36:10.166Z,0
2016-12-25T00:37:21.155Z,0
2016-12-25T00:38:32.196Z,0
2016-12-25T00:39:43.209Z,0
2016-12-25T00:40:54.202Z,0
2016-12-25T00:42:05.192Z,0
2016-12-25T00:43:16.176Z,0
2016-12-25T00:44:27.410Z,0
2016-12-25T00:45:38.428Z,0
2016-12-25T00:46:49.609Z,0
2016-12-25T00:48:00.600Z,0
2016-12-25T00:49:11.586Z,0
2016-12-25T00:50:22.623Z,0
2016-12-25T00:51:33.601Z,0
2016-12-25T00:52:44.589Z,0
2016-12-25T00:53:55.576Z,0
2016-12-25T00:55:06.559Z,0
2016-12-25T00:56:17.590Z,0
2016-12-25T00:57:28.571Z,0
2016-12-25T00:58:39.762Z,0
2016-12-25T00:59:50.741Z,0
2016-12-25T01:01:01.739Z,0
2016-12-25T01:02:12.774Z,0
2016-12-25T01:03:23.758Z,0
2016-12-25T01:04:34.754Z,0
2016-12-25T01:05:45.782Z,0
2016-12-25T01:06:56.757Z,0
2016-12-25T01:08:07.799Z,0
2016-12-25T01:09:18.831Z,0
2016-12-25T01:10:29.811Z,0
2016-12-25T01:11:40.803Z,0
2016-12-25T01:12:51.790Z,0
2016-12-25T01:14:02.828Z,0
2016-12-25T01:15:13.817Z,0
2016-12-25T01:16:24.800Z,0
2016-12-25T01:17:35.993Z,0
2016-12-25T01:18:46.975Z,0
2016-12-25T01:19:58.011Z,0
2016-12-25T01:21:08.999Z,0
2016-12-25T01:22:19.990Z,0
2016-12-25T01:23:30.980Z,0
2016-12-25T01:24:41.963Z,0
2016-12-25T01:25:52.946Z,0
2016-12-25T01:27:03.939Z,0
2016-12-25T01:28:14.929Z,0
2016-12-25T01:29:25.912Z,0
2016-12-25T01:30:36.904Z,0
2016-12-25T01:31:47.893Z,0
2016-12-25T01:32:58.889Z,0
2016-12-25T01:34:09.876Z,0
2016-12-25T01:35:21.063Z,0
2016-12-25T01:36:32.245Z,0
2016-12-25T01:37:43.234Z,0
2016-12-25T01:38:54.219Z,0
2016-12-25T01:40:05.254Z,0
2016-12-25T01:41:16.242Z,0
2016-12-25T01:42:27.424Z,0
2016-12-25T01:43:38.430Z,0
2016-12-25T01:44:49.444Z,0
2016-12-25T01:46:00.430Z,0
2016-12-25T01:47:11.410Z,0
2016-12-25T01:48:22.607Z,0
2016-12-25T01:49:33.593Z,0
2016-12-25T01:50:44.613Z,0
2016-12-25T01:51:55.599Z,0
2016-12-25T01:53:06.586Z,0
2016-12-25T01:54:17.579Z,0
2016-12-25T01:55:28.562Z,0
2016-12-25T01:56:39.546Z,0
2016-12-25T01:57:50.534Z,0
2016-12-25T01:59:01.923Z,0
2016-12-25T02:00:12.962Z,0
2016-12-25T02:01:23.951Z,0
2016-12-25T02:02:35.136Z,0
2016-12-25T02:03:46.132Z,0
2016-12-25T02:04:57.121Z,0
2016-12-25T02:06:08.103Z,0
2016-12-25T02:07:19.287Z,0
2016-12-25T02:08:30.271Z,0
2016-12-25T02:09:41.261Z,0
2016-12-25T02:10:52.237Z,0
2016-12-25T02:12:03.429Z,0
2016-12-25T02:13:14.427Z,0
2016-12-25T02:14:25.610Z,0
2016-12-25T02:15:36.593Z,0
2016-12-25T02:16:47.778Z,0
2016-12-25T02:17:58.765Z,0
2016-12-25T02:19:09.749Z,0
2016-12-25T02:20:20.738Z,0
2016-12-25T02:21:31.726Z,0
2016-12-25T02:22:42.707Z,0
2016-12-25T02:23:53.696Z,0
2016-12-25T02:25:04.683Z,0
2016-12-25T02:26:15.672Z,0
2016-12-25T02:27:26.656Z,0
2016-12-25T02:28:37.641Z,0
2016-12-25T02:29:48.619Z,0
2016-12-25T02:30:59.810Z,0
2016-12-25T02:32:11.002Z,0
2016-12-25T02:33:21.988Z,0
2016-12-25T02:34:32.967Z,0
2016-12-25T02:35:43.963Z,0
2016-12-25T02:36:54.953Z,0
2016-12-25T02:38:05.938Z,0
2016-12-25T02:39:16.921Z,0
2016-12-25T02:40:27.917Z,0
2016-12-25T02:41:38.905Z,0
2016-12-25T02:42:49.887Z,0
2016-12-25T02:44:00.872Z,0
2016-12-25T02:45:11.863Z,0
2016-12-25T02:46:22.856Z,0
2016-12-25T02:47:33.841Z,0
2016-12-25T02:48:44.876Z,0
2016-12-25T02:49:55.868Z,0
2016-12-25T02:51:07.081Z,0
2016-12-25T02:52:18.064Z,0
2016-12-25T02:53:29.079Z,0
2016-12-25T02:54:40.062Z,0
2016-12-25T02:55:51.078Z,0
2016-12-25T02:57:02.065Z,0
2016-12-25T02:58:13.254Z,0
2016-12-25T02:59:24.235Z,0
2016-12-25T03:00:35.273Z,0
2016-12-25T03:01:46.271Z,0
2016-12-25T03:02:57.253Z,0
2016-12-25T03:04:08.444Z,0
2016-12-25T03:05:19.430Z,0
2016-12-25T03:06:30.628Z,0
2016-12-25T03:07:41.607Z,0
2016-12-25T03:08:52.597Z,0
2016-12-25T03:10:03.587Z,0
2016-12-25T03:11:14.987Z,0
2016-12-25T03:12:25.968Z,0
2016-12-25T03:13:37.182Z,0
2016-12-25T03:14:48.162Z,0
2016-12-25T03:15:59.145Z,0
2016-12-25T03:17:10.132Z,0
2016-12-25T03:18:21.126Z,0
2016-12-25T03:19:32.113Z,0
2016-12-25T03:20:43.103Z,0
2016-12-25T03:21:54.290Z,0
2016-12-25T03:23:05.274Z,0
2016-12-25T03:24:16.261Z,0
2016-12-25T03:25:27.454Z,0
2016-12-25T03:26:38.431Z,0
2016-12-25T03:27:49.616Z,0
2016-12-25T03:29:00.809Z,0
2016-12-25T03:30:11.993Z,0
2016-12-25T03:31:22.991Z,0
2016-12-25T03:32:33.983Z,0
2016-12-25T03:33:44.966Z,0
2016-12-25T03:34:55.948Z,0
2016-12-25T03:36:06.935Z,0
2016-12-25T03:37:18.122Z,0
2016-12-25T03:38:29.114Z,0
2016-12-25T03:39:40.304Z,0
2016-12-25T03:40:51.299Z,0
2016-12-25T03:42:02.305Z,0
2016-12-25T03:43:13.493Z,0
2016-12-25T03:44:24.482Z,0
2016-12-25T03:45:35.477Z,0
2016-12-25T03:46:46.666Z,0
2016-12-25T03:47:57.648Z,0
2016-12-25T03:49:09.034Z,0
2016-12-25T03:50:20.080Z,0
2016-12-25T03:51:31.264Z,0
2016-12-25T03:52:42.253Z,0
2016-12-25T03:53:53.240Z,0
2016-12-25T03:55:04.253Z,0
2016-12-25T03:56:15.289Z,0
2016-12-25T03:57:26.275Z,0
2016-12-25T03:58:37.259Z,0
2016-12-25T03:59:48.447Z,0
2016-12-25T04:00:59.429Z,0
2016-12-25T04:02:10.466Z,0
2016-12-25T04:03:21.452Z,0
2016-12-25T04:04:32.433Z,0
2016-12-25T04:05:43.421Z,0
2016-12-25T04:06:54.406Z,0
2016-12-25T04:08:05.445Z,0
2016-12-25T04:09:16.439Z,0
2016-12-25T04:10:27.631Z,0
2016-12-25T04:11:38.623Z,0
2016-12-25T04:12:49.615Z,0
2016-12-25T04:14:00.862Z,0
2016-12-25T04:15:11.847Z,0
2016-12-25T04:16:23.025Z,0
2016-12-25T04:17:34.013Z,0
2016-12-25T04:18:45.000Z,0
2016-12-25T04:19:56.039Z,0
2016-12-25T04:21:07.416Z,0
2016-12-25T04:22:18.441Z,0
2016-12-25T04:23:29.429Z,0
2016-12-25T04:24:40.414Z,0
2016-12-25T04:25:51.403Z,0
2016-12-25T04:27:02.384Z,0
2016-12-25T04:28:13.366Z,0
2016-12-25T04:29:24.349Z,0
2016-12-25T04:30:35.751Z,0
2016-12-25T04:31:46.729Z,0
2016-12-25T04:32:57.718Z,0
2016-12-25T04:34:08.706Z,0
2016-12-25T04:35:19.895Z,0
2016-12-25T04:36:30.881Z,0
2016-12-25T04:37:41.870Z,0
2016-12-25T04:38:52.859Z,0
2016-12-25T04:40:04.045Z,0
2016-12-25T04:41:15.228Z,0
2016-12-25T04:42:26.210Z,0
2016-12-25T04:43:37.202Z,0
2016-12-25T04:44:48.185Z,0
2016-12-25T04:45:59.201Z,0
2016-12-25T04:47:10.188Z,0
2016-12-25T04:48:21.174Z,0
2016-12-25T04:49:32.160Z,0
2016-12-25T04:50:43.354Z,0
2016-12-25T04:51:54.340Z,0
2016-12-25T04:53:05.321Z,0
2016-12-25T04:54:16.311Z,0
2016-12-25T04:55:27.297Z,0
2016-12-25T04:56:38.290Z,0
2016-12-25T04:57:49.271Z,0
2016-12-25T04:59:00.266Z,0
2016-12-25T05:00:11.255Z,0
2016-12-25T05:01:22.246Z,0
2016-12-25T05:02:33.229Z,0
2016-12-25T05:03:44.418Z,0
2016-12-25T05:04:55.603Z,0
2016-12-25T05:06:06.590Z,0
2016-12-25T05:07:17.574Z,0
2016-12-25T05:08:28.561Z,0
2016-12-25T05:09:39.754Z,0
2016-12-25T05:10:50.747Z,0
2016-12-25T05:12:01.933Z,0
2016-12-25T05:13:13.119Z,0
2016-12-25T05:14:24.107Z,0
2016-12-25T05:15:35.091Z,0
2016-12-25T05:16:46.078Z,0
2016-12-25T05:17:57.055Z,0
2016-12-25T05:19:08.047Z,0
2016-12-25T05:20:19.030Z,0
2016-12-25T05:21:30.221Z,0
2016-12-25T05:22:41.214Z,0
2016-12-25T05:23:52.229Z,0
2016-12-25T05:25:03.275Z,0
2016-12-25T05:26:14.255Z,0
2016-12-25T05:27:25.635Z,0
2016-12-25T05:28:36.613Z,0
2016-12-25T05:29:47.604Z,0
2016-12-25T05:30:58.797Z,0
2016-12-25T05:32:09.788Z,0
2016-12-25T05:33:20.984Z,0
2016-12-25T05:34:31.965Z,0
2016-12-25T05:35:42.949Z,0
2016-12-25T05:36:54.136Z,0
2016-12-25T05:38:05.135Z,0
2016-12-25T05:39:16.130Z,0
2016-12-25T05:40:27.311Z,0
2016-12-25T05:41:38.296Z,0
2016-12-25T05:42:49.286Z,0
2016-12-25T05:44:00.276Z,0
2016-12-25T05:45:11.271Z,0
2016-12-25T05:46:22.464Z,0
2016-12-25T05:47:33.448Z,0
2016-12-25T05:48:44.438Z,0
2016-12-25T05:49:55.420Z,0
2016-12-25T05:51:06.408Z,0
2016-12-25T05:52:17.594Z,0
2016-12-25T05:53:28.582Z,0
2016-12-25T05:54:39.570Z,0
2016-12-25T05:55:50.557Z,0
2016-12-25T05:57:01.955Z,0
2016-12-25T05:58:12.935Z,0
2016-12-25T05:59:24.129Z,0
2016-12-25T06:00:35.320Z,0
2016-12-25T06:01:46.304Z,0
2016-12-25T06:02:57.288Z,0
2016-12-25T06:04:08.273Z,0
2016-12-25T06:05:19.257Z,0
2016-12-25T06:06:30.246Z,0
2016-12-25T06:07:41.235Z,0
2016-12-25T06:08:52.245Z,0
2016-12-25T06:10:03.282Z,0
2016-12-25T06:11:14.476Z,0
2016-12-25T06:12:25.462Z,0
2016-12-25T06:13:36.661Z,0
2016-12-25T06:14:47.646Z,0
2016-12-25T06:15:58.631Z,0
2016-12-25T06:17:09.620Z,0
2016-12-25T06:18:20.812Z,0
2016-12-25T06:19:31.832Z,0
2016-12-25T06:20:42.874Z,0
2016-12-25T06:21:53.860Z,0
2016-12-25T06:23:04.846Z,0
2016-12-25T06:24:15.835Z,0
2016-12-25T06:25:26.874Z,0
2016-12-25T06:26:37.869Z,0
2016-12-25T06:27:48.855Z,0
2016-12-25T06:28:59.853Z,0
2016-12-25T06:30:10.841Z,0
2016-12-25T06:31:21.877Z,0
2016-12-25T06:32:33.070Z,0
2016-12-25T06:33:44.662Z,0
2016-12-25T06:34:55.654Z,0
2016-12-25T06:36:06.634Z,0
2016-12-25T06:37:17.674Z,0
2016-12-25T06:38:28.661Z,0
2016-12-25T06:39:39.644Z,0
2016-12-25T06:40:50.631Z,0
2016-12-25T06:42:01.618Z,0
2016-12-25T06:43:12.858Z,0
2016-12-25T06:44:23.849Z,0
2016-12-25T06:45:34.834Z,0
2016-12-25T06:46:45.819Z,0
2016-12-25T06:47:56.808Z,0
2016-12-25T06:49:07.842Z,0
2016-12-25T06:50:18.830Z,0
2016-12-25T06:51:29.816Z,0
2016-12-25T06:52:40.794Z,0
2016-12-25T06:53:51.780Z,0
2016-12-25T06:55:02.813Z,0
2016-12-25T06:56:13.805Z,0
2016-12-25T06:57:24.790Z,0
2016-12-25T06:58:36.013Z,0
2016-12-25T06:59:46.995Z,0
2016-12-25T07:00:58.038Z,0
2016-12-25T07:02:09.031Z,0
2016-12-25T07:03:20.020Z,0
2016-12-25T07:04:31.014Z,0
2016-12-25T07:05:42.221Z,0
2016-12-25T07:06:53.255Z,0
2016-12-25T07:08:04.240Z,0
2016-12-25T07:09:15.225Z,0
2016-12-25T07:10:26.205Z,0
2016-12-25T07:11:37.194Z,0
2016-12-25T07:12:48.230Z,0
2016-12-25T07:13:59.423Z,0
2016-12-25T07:15:10.416Z,0
2016-12-25T07:16:21.626Z,0
2016-12-25T07:17:32.611Z,0
2016-12-25T07:18:43.658Z,0
2016-12-25T07:19:54.847Z,0
2016-12-25T07:21:05.839Z,0
2016-12-25T07:22:17.023Z,0
2016-12-25T07:23:28.023Z,0
2016-12-25T07:24:39.256Z,0
2016-12-25T07:25:50.236Z,0
2016-12-25T07:27:01.217Z,0
2016-12-25T07:28:12.404Z,0
2016-12-25T07:29:23.391Z,0
2016-12-25T07:30:34.420Z,0
2016-12-25T07:31:45.410Z,0
2016-12-25T07:32:56.416Z,0
2016-12-25T07:34:07.403Z,0
2016-12-25T07:35:18.388Z,0
2016-12-25T07:36:29.422Z,0
2016-12-25T07:37:40.417Z,0
2016-12-25T07:38:51.406Z,0
2016-12-25T07:40:02.392Z,0
2016-12-25T07:41:13.383Z,0
2016-12-25T07:42:24.412Z,0
2016-12-25T07:43:35.399Z,0
2016-12-25T07:44:46.414Z,0
2016-12-25T07:45:57.394Z,0
2016-12-25T07:47:08.588Z,0
2016-12-25T07:48:19.817Z,0
2016-12-25T07:49:31.011Z,0
2016-12-25T07:50:41.998Z,0
2016-12-25T07:51:52.980Z,0
2016-12-25T07:53:03.993Z,0
2016-12-25T07:54:15.031Z,0
2016-12-25T07:55:26.012Z,0
2016-12-25T07:56:36.997Z,0
2016-12-25T07:57:47.988Z,0
2016-12-25T07:58:59.175Z,0
2016-12-25T08:00:10.219Z,0
2016-12-25T08:01:21.401Z,0
2016-12-25T08:02:32.396Z,5
2016-12-25T08:03:43.385Z,5
2016-12-25T08:04:54.382Z,5
2016-12-25T08:06:05.407Z,5
2016-12-25T08:07:16.421Z,5
2016-12-25T08:08:27.812Z,5
2016-12-25T08:09:38.999Z,5
2016-12-25T08:10:49.983Z,5
2016-12-25T08:12:01.218Z,5
2016-12-25T08:13:12.204Z,5
2016-12-25T08:14:23.187Z,5
2016-12-25T08:15:34.375Z,5
2016-12-25T08:16:45.370Z,5
2016-12-25T08:17:56.401Z,5
2016-12-25T08:19:07.599Z,10
2016-12-25T08:20:18.775Z,10
2016-12-25T08:21:29.765Z,10
2016-12-25T08:22:40.749Z,15
2016-12-25T08:23:51.781Z,15
2016-12-25T08:25:02.791Z,15
2016-12-25T08:26:13.775Z,15
2016-12-25T08:27:24.961Z,20
2016-12-25T08:28:35.947Z,20
2016-12-25T08:29:46.983Z,20
2016-12-25T08:30:57.967Z,20
2016-12-25T08:32:08.951Z,25
2016-12-25T08:33:19.930Z,25
2016-12-25T08:34:30.914Z,20
2016-12-25T08:35:41.899Z,25
2016-12-25T08:36:52.883Z,25
2016-12-25T08:38:03.876Z,20
2016-12-25T08:39:14.856Z,20
2016-12-25T08:40:25.894Z,20
2016-12-25T08:41:36.879Z,20
2016-12-25T08:42:47.870Z,20
2016-12-25T08:43:58.851Z,20
2016-12-25T08:45:09.838Z,20
2016-12-25T08:46:20.824Z,20
2016-12-25T08:47:31.809Z,20
2016-12-25T08:48:42.791Z,20
2016-12-25T08:49:53.779Z,20
2016-12-25T08:51:04.761Z,20
2016-12-25T08:52:15.770Z,20
2016-12-25T08:53:26.760Z,20
2016-12-25T08:54:37.757Z,15
2016-12-25T08:55:48.739Z,15
2016-12-25T08:56:59.719Z,15
2016-12-25T08:58:10.911Z,20
2016-12-25T08:59:21.892Z,20
2016-12-25T09:00:32.872Z,20
2016-12-25T09:01:44.061Z,25
2016-12-25T09:02:55.249Z,25
2016-12-25T09:04:06.241Z,25
2016-12-25T09:05:17.279Z,25
2016-12-25T09:06:28.268Z,25
2016-12-25T09:07:39.258Z,30
2016-12-25T09:08:50.247Z,25
2016-12-25T09:10:01.233Z,30
2016-12-25T09:11:12.213Z,35
2016-12-25T09:12:23.194Z,35
2016-12-25T09:13:34.387Z,40
2016-12-25T09:14:45.615Z,45
2016-12-25T09:15:56.596Z,40
2016-12-25T09:17:07.589Z,40
2016-12-25T09:18:18.588Z,60
2016-12-25T09:19:29.772Z,55
2016-12-25T09:20:40.751Z,45
2016-12-25T09:21:51.765Z,55
2016-12-25T09:23:02.751Z,70
2016-12-25T09:24:13.740Z,85
2016-12-25T09:25:24.724Z,80
2016-12-25T09:26:35.921Z,80
2016-12-25T09:27:46.911Z,80
2016-12-25T09:28:58.087Z,85
2016-12-25T09:30:09.085Z,75
2016-12-25T09:31:20.270Z,65
2016-12-25T09:32:31.261Z,65
2016-12-25T09:33:42.476Z,55
2016-12-25T09:34:53.462Z,60
2016-12-25T09:36:04.450Z,55
2016-12-25T09:37:15.644Z,45
2016-12-25T09:38:26.629Z,45
2016-12-25T09:39:37.607Z,45
2016-12-25T09:40:48.586Z,40
2016-12-25T09:41:59.579Z,45
2016-12-25T09:43:10.565Z,40
2016-12-25T09:44:21.567Z,35
2016-12-25T09:45:32.553Z,35
2016-12-25T09:46:43.541Z,40
2016-12-25T09:47:54.521Z,40
2016-12-25T09:49:05.508Z,30
2016-12-25T09:50:16.490Z,35
2016-12-25T09:51:27.481Z,35
2016-12-25T09:52:38.465Z,30
2016-12-25T09:53:49.450Z,30
2016-12-25T09:55:00.436Z,35
2016-12-25T09:56:11.423Z,30
2016-12-25T09:57:22.406Z,25
2016-12-25T09:58:33.387Z,30
2016-12-25T09:59:44.371Z,30
2016-12-25T10:00:55.553Z,30
2016-12-25T10:02:06.540Z,35
2016-12-25T10:03:17.719Z,35
2016-12-25T10:04:28.704Z,40
2016-12-25T10:05:39.727Z,40
2016-12-25T10:06:50.942Z,50
2016-12-25T10:08:01.926Z,40
2016-12-25T10:09:12.909Z,40
2016-12-25T10:10:24.086Z,40
2016-12-25T10:11:35.072Z,45
2016-12-25T10:12:46.265Z,55
2016-12-25T10:13:57.253Z,55
2016-12-25T10:15:08.237Z,55
2016-12-25T10:16:19.227Z,50
2016-12-25T10:17:30.213Z,40
2016-12-25T10:18:41.200Z,35
2016-12-25T10:19:52.184Z,35
2016-12-25T10:21:03.171Z,35
2016-12-25T10:22:14.167Z,45
2016-12-25T10:23:25.151Z,40
2016-12-25T10:24:36.141Z,40
2016-12-25T10:25:47.129Z,40
2016-12-25T10:26:58.110Z,50
2016-12-25T10:28:09.303Z,50
2016-12-25T10:29:20.289Z,55
2016-12-25T10:30:31.279Z,55
2016-12-25T10:31:42.263Z,50
2016-12-25T10:32:53.252Z,60
2016-12-25T10:34:04.440Z,55
2016-12-25T10:35:15.432Z,50
2016-12-25T10:36:26.419Z,45
2016-12-25T10:37:37.401Z,50
2016-12-25T10:38:48.387Z,55
2016-12-25T10:39:59.582Z,55
2016-12-25T10:41:10.574Z,60
2016-12-25T10:42:21.563Z,50
2016-12-25T10:43:32.548Z,50
2016-12-25T10:44:43.535Z,50
2016-12-25T10:45:54.581Z,45
2016-12-25T10:47:05.564Z,45
2016-12-25T10:48:16.564Z,45
2016-12-25T10:49:27.549Z,45
2016-12-25T10:50:38.742Z,50
2016-12-25T10:51:49.932Z,50
2016-12-25T10:53:00.915Z,45
2016-12-25T10:54:11.898Z,40
2016-12-25T10:55:23.093Z,40
2016-12-25T10:56:34.078Z,40
2016-12-25T10:57:45.073Z,40
2016-12-25T10:58:56.471Z,40
2016-12-25T11:00:07.509Z,40
2016-12-25T11:01:18.501Z,40
2016-12-25T11:02:29.482Z,50
2016-12-25T11:03:40.500Z,50
2016-12-25T11:04:51.485Z,65
2016-12-25T11:06:02.475Z,85
2016-12-25T11:07:13.470Z,115
2016-12-25T11:08:24.457Z,90
2016-12-25T11:09:35.468Z,85
2016-12-25T11:10:46.442Z,80
2016-12-25T11:11:57.467Z,70
2016-12-25T11:13:08.662Z,70
2016-12-25T11:14:19.652Z,65
2016-12-25T11:15:30.647Z,80
2016-12-25T11:16:41.645Z,75
2016-12-25T11:17:52.630Z,70
2016-12-25T11:19:03.611Z,65
2016-12-25T11:20:14.618Z,50
2016-12-25T11:21:25.603Z,50
2016-12-25T11:22:36.784Z,50
2016-12-25T11:23:47.782Z,50
2016-12-25T11:24:58.767Z,50
2016-12-25T11:26:09.754Z,50
2016-12-25T11:27:20.739Z,50
2016-12-25T11:28:31.729Z,50
2016-12-25T11:29:42.918Z,50
2016-12-25T11:30:54.299Z,60
2016-12-25T11:32:05.310Z,70
2016-12-25T11:33:16.296Z,75
2016-12-25T11:34:27.286Z,75
2016-12-25T11:35:38.266Z,80
2016-12-25T11:36:49.254Z,65
2016-12-25T11:38:00.242Z,50
2016-12-25T11:39:11.227Z,50
2016-12-25T11:40:22.413Z,45
2016-12-25T11:41:33.404Z,40
2016-12-25T11:42:44.390Z,45
2016-12-25T11:43:55.382Z,45
2016-12-25T11:45:06.365Z,50
2016-12-25T11:46:17.355Z,55
2016-12-25T11:47:28.346Z,50
2016-12-25T11:48:39.334Z,50
2016-12-25T11:49:50.320Z,50
2016-12-25T11:51:01.310Z,50
2016-12-25T11:52:12.310Z,45
2016-12-25T11:53:23.290Z,45
2016-12-25T11:54:34.290Z,50
2016-12-25T11:55:45.511Z,45
2016-12-25T11:56:56.495Z,40
2016-12-25T11:58:07.479Z,45
2016-12-25T11:59:18.657Z,50
2016-12-25T12:00:29.897Z,50
2016-12-25T12:01:40.882Z,55
2016-12-25T12:02:51.869Z,55
2016-12-25T12:04:02.857Z,55
2016-12-25T12:05:13.867Z,50
2016-12-25T12:06:24.854Z,50
2016-12-25T12:07:35.841Z,55
2016-12-25T12:08:47.031Z,50
2016-12-25T12:09:58.024Z,50
2016-12-25T12:11:09.009Z,50
2016-12-25T12:12:20.190Z,50
2016-12-25T12:13:31.184Z,50
2016-12-25T12:14:42.178Z,45
2016-12-25T12:15:53.158Z,45
2016-12-25T12:17:04.166Z,45
2016-12-25T12:18:15.350Z,35
2016-12-25T12:19:26.340Z,35
2016-12-25T12:20:37.327Z,35
2016-12-25T12:21:48.312Z,35
2016-12-25T12:22:59.303Z,35
2016-12-25T12:24:10.288Z,40
2016-12-25T12:25:21.325Z,40
2016-12-25T12:26:32.313Z,35
2016-12-25T12:27:43.295Z,40
2016-12-25T12:28:54.276Z,35
2016-12-25T12:30:05.266Z,40
2016-12-25T12:31:16.257Z,40
2016-12-25T12:32:27.240Z,40
2016-12-25T12:33:38.240Z,40
2016-12-25T12:34:49.224Z,35
2016-12-25T12:36:00.213Z,40
2016-12-25T12:37:11.206Z,40
2016-12-25T12:38:22.400Z,35
2016-12-25T12:39:33.388Z,40
2016-12-25T12:40:44.382Z,35
2016-12-25T12:41:55.373Z,40
2016-12-25T12:43:06.365Z,40
2016-12-25T12:44:17.357Z,30
2016-12-25T12:45:28.339Z,35
2016-12-25T12:46:39.321Z,30
2016-12-25T12:47:50.330Z,30
2016-12-25T12:49:01.316Z,35
2016-12-25T12:50:12.302Z,30
2016-12-25T12:51:23.288Z,30
2016-12-25T12:52:34.479Z,30
2016-12-25T12:53:45.455Z,30
2016-12-25T12:54:56.442Z,30
2016-12-25T12:56:07.632Z,35
2016-12-25T12:57:18.830Z,35
2016-12-25T12:58:30.020Z,30
2016-12-25T12:59:41.006Z,35
2016-12-25T13:00:51.990Z,35
2016-12-25T13:02:02.980Z,30
2016-12-25T13:03:13.974Z,30
2016-12-25T13:04:24.953Z,35
2016-12-25T13:05:35.946Z,35
2016-12-25T13:06:46.933Z,30
2016-12-25T13:07:57.924Z,30
2016-12-25T13:09:08.917Z,30
2016-12-25T13:10:19.897Z,25
2016-12-25T13:11:30.883Z,30
2016-12-25T13:12:41.869Z,30
2016-12-25T13:13:52.859Z,25
2016-12-25T13:15:03.843Z,25
2016-12-25T13:16:14.828Z,30
2016-12-25T13:17:25.813Z,35
2016-12-25T13:18:36.797Z,30
2016-12-25T13:19:47.985Z,30
2016-12-25T13:20:58.980Z,30
2016-12-25T13:22:09.961Z,30
2016-12-25T13:23:20.945Z,35
2016-12-25T13:24:31.928Z,30
2016-12-25T13:25:42.929Z,30
2016-12-25T13:26:53.916Z,25
2016-12-25T13:28:05.105Z,30
2016-12-25T13:29:16.084Z,25
2016-12-25T13:30:27.122Z,30
2016-12-25T13:31:38.115Z,25
2016-12-25T13:32:49.302Z,25
2016-12-25T13:34:00.495Z,25
2016-12-25T13:35:11.475Z,30
2016-12-25T13:36:22.455Z,30
2016-12-25T13:37:33.640Z,25
2016-12-25T13:38:44.628Z,25
2016-12-25T13:39:55.628Z,25
2016-12-25T13:41:06.618Z,25
2016-12-25T13:42:17.807Z,20
2016-12-25T13:43:28.996Z,25
2016-12-25T13:44:39.988Z,20
2016-12-25T13:45:50.974Z,20
2016-12-25T13:47:01.986Z,20
2016-12-25T13:48:12.975Z,25
2016-12-25T13:49:23.963Z,25
2016-12-25T13:50:34.944Z,20
2016-12-25T13:51:45.932Z,25
2016-12-25T13:52:56.924Z,25
2016-12-25T13:54:07.905Z,20
2016-12-25T13:55:18.888Z,25
2016-12-25T13:56:29.873Z,20
2016-12-25T13:57:40.857Z,25
2016-12-25T13:58:51.840Z,25
2016-12-25T14:00:02.827Z,25
2016-12-25T14:01:14.008Z,25
2016-12-25T14:02:25.203Z,25
2016-12-25T14:03:36.190Z,25
2016-12-25T14:04:47.177Z,25
2016-12-25T14:05:58.221Z,30
2016-12-25T14:07:09.211Z,25
2016-12-25T14:08:20.202Z,25
2016-12-25T14:09:31.199Z,30
2016-12-25T14:10:42.443Z,25
2016-12-25T14:11:53.426Z,20
2016-12-25T14:13:04.611Z,20
2016-12-25T14:14:15.590Z,20
2016-12-25T14:15:26.625Z,15
2016-12-25T14:16:37.608Z,15
2016-12-25T14:17:48.614Z,20
2016-12-25T14:18:59.806Z,15
2016-12-25T14:20:10.870Z,15
2016-12-25T14:21:21.858Z,15
2016-12-25T14:22:32.848Z,15
2016-12-25T14:23:44.037Z,15
2016-12-25T14:24:55.028Z,15
2016-12-25T14:26:06.062Z,15
2016-12-25T14:27:17.054Z,15
2016-12-25T14:28:28.240Z,15
2016-12-25T14:29:39.628Z,10
2016-12-25T14:30:50.827Z,10
2016-12-25T14:32:02.227Z,10
2016-12-25T14:33:13.214Z,10
2016-12-25T14:34:24.202Z,10
2016-12-25T14:35:35.191Z,10
2016-12-25T14:36:46.179Z,10
2016-12-25T14:37:57.169Z,10
2016-12-25T14:39:08.149Z,5
2016-12-25T14:40:19.138Z,5
2016-12-25T14:41:30.135Z,5
2016-12-25T14:42:41.323Z,5
2016-12-25T14:43:52.510Z,5
2016-12-25T14:45:03.508Z,5
2016-12-25T14:46:14.498Z,10
2016-12-25T14:47:25.691Z,5
2016-12-25T14:48:36.683Z,10
2016-12-25T14:49:47.679Z,5
2016-12-25T14:50:58.915Z,10
2016-12-25T14:52:10.111Z,10
2016-12-25T14:53:21.097Z,10
2016-12-25T14:54:32.089Z,5
2016-12-25T14:55:43.074Z,5
2016-12-25T14:56:54.063Z,5
2016-12-25T14:58:05.055Z,5
2016-12-25T14:59:16.043Z,5
2016-12-25T15:00:27.030Z,5
2016-12-25T15:01:38.218Z,5
2016-12-25T15:02:49.221Z,5
2016-12-25T15:04:00.220Z,5
2016-12-25T15:05:11.265Z,5
2016-12-25T15:06:22.249Z,5
2016-12-25T15:07:33.450Z,5
2016-12-25T15:08:44.634Z,5
2016-12-25T15:09:55.621Z,0
2016-12-25T15:11:06.607Z,5
2016-12-25T15:12:17.799Z,5
2016-12-25T15:13:28.793Z,0
2016-12-25T15:14:39.780Z,0
2016-12-25T15:15:50.816Z,0
2016-12-25T15:17:01.805Z,0
2016-12-25T15:18:12.795Z,0
2016-12-25T15:19:23.773Z,0
2016-12-25T15:20:34.816Z,0
2016-12-25T15:21:45.802Z,0
2016-12-25T15:22:56.799Z,0
2016-12-25T15:24:07.989Z,0
2016-12-25T15:25:19.176Z,0
2016-12-25T15:26:30.159Z,0
2016-12-25T15:27:41.353Z,0
2016-12-25T15:28:52.343Z,0
2016-12-25T15:30:03.338Z,0
2016-12-25T15:31:14.321Z,0
2016-12-25T15:32:25.310Z,0
2016-12-25T15:33:36.302Z,0
2016-12-25T15:34:47.487Z,0
2016-12-25T15:35:58.472Z,0
2016-12-25T15:37:09.456Z,0
2016-12-25T15:38:20.445Z,0
2016-12-25T15:39:31.431Z,0
2016-12-25T15:40:42.470Z,0
2016-12-25T15:41:53.454Z,0
2016-12-25T15:43:04.449Z,0
2016-12-25T15:44:15.442Z,0
2016-12-25T15:45:26.628Z,0
2016-12-25T15:46:38.015Z,0
2016-12-25T15:47:48.996Z,0
2016-12-25T15:49:00.187Z,0
2016-12-25T15:50:11.182Z,0
2016-12-25T15:51:22.172Z,0
2016-12-25T15:52:33.158Z,0
2016-12-25T15:53:44.143Z,0
2016-12-25T15:54:55.130Z,0
2016-12-25T15:56:06.142Z,0
2016-12-25T15:57:17.133Z,0
2016-12-25T15:58:28.322Z,0
2016-12-25T15:59:39.309Z,0
2016-12-25T16:00:50.305Z,0
2016-12-25T16:02:01.294Z,0
2016-12-25T16:03:12.485Z,0
2016-12-25T16:04:23.696Z,0
2016-12-25T16:05:34.684Z,0
2016-12-25T16:06:45.674Z,0
2016-12-25T16:07:56.653Z,0
2016-12-25T16:09:07.644Z,0
2016-12-25T16:10:18.628Z,0
2016-12-25T16:11:29.611Z,0
2016-12-25T16:12:40.805Z,0
2016-12-25T16:13:51.802Z,0
2016-12-25T16:15:02.792Z,0
2016-12-25T16:16:13.776Z,0
2016-12-25T16:17:24.762Z,0
2016-12-25T16:18:36.017Z,0
2016-12-25T16:19:47.003Z,0
2016-12-25T16:20:58.047Z,0
2016-12-25T16:22:09.032Z,0
2016-12-25T16:23:20.408Z,0
2016-12-25T16:24:31.389Z,0
2016-12-25T16:25:42.380Z,0
2016-12-25T16:26:53.594Z,0
2016-12-25T16:28:04.578Z,0
2016-12-25T16:29:15.564Z,0
2016-12-25T16:30:26.553Z,0
2016-12-25T16:31:37.736Z,0
2016-12-25T16:32:48.724Z,0
2016-12-25T16:33:59.712Z,0
2016-12-25T16:35:10.705Z,0
2016-12-25T16:36:21.900Z,0
2016-12-25T16:37:32.881Z,0
2016-12-25T16:38:43.870Z,0
2016-12-25T16:39:54.852Z,0
2016-12-25T16:41:05.842Z,0
2016-12-25T16:42:16.823Z,0
2016-12-25T16:43:27.802Z,0
2016-12-25T16:44:38.799Z,0
2016-12-25T16:45:49.795Z,0
2016-12-25T16:47:00.797Z,0
2016-12-25T16:48:11.784Z,0
2016-12-25T16:49:22.977Z,0
2016-12-25T16:50:33.968Z,0
2016-12-25T16:51:44.994Z,0
2016-12-25T16:52:55.985Z,0
2016-12-25T16:54:06.969Z,0
2016-12-25T16:55:17.965Z,0
2016-12-25T16:56:28.955Z,0
2016-12-25T16:57:39.937Z,0
2016-12-25T16:58:50.925Z,0
2016-12-25T17:00:01.913Z,0
2016-12-25T17:01:12.951Z,0
2016-12-25T17:02:23.946Z,0
2016-12-25T17:03:34.942Z,0
2016-12-25T17:04:46.188Z,0
2016-12-25T17:05:57.178Z,0
2016-12-25T17:07:08.208Z,0
2016-12-25T17:08:19.200Z,0
2016-12-25T17:09:30.392Z,0
2016-12-25T17:10:41.379Z,0
2016-12-25T17:11:52.363Z,0
2016-12-25T17:13:03.392Z,0
2016-12-25T17:14:14.370Z,0
2016-12-25T17:15:25.358Z,0
2016-12-25T17:16:36.337Z,0